sensor_id;sensor_type;location;lat;lon;timestamp;P1;durP1;ratioP1;P2;durP2;ratioP2
32824;SDS011;51060;42.640;24.356;2023-04-08T00:02:21;18.50;;;14.53;;
32824;SDS011;51060;42.640;24.356;2023-04-08T00:04:46;14.20;;;11.40;;
32824;SDS011;51060;42.640;24.356;2023-04-08T00:07:12;18.13;;;15.17;;
32824;SDS011;51060;42.640;24.356;2023-04-08T00:09:38;19.20;;;15.63;;
32824;SDS011;51060;42.640;24.356;2023-04-08T00:12:03;15.73;;;12.63;;
32824;SDS011;51060;42.640;24.356;2023-04-08T00:14:29;16.10;;;13.63;;
32824;SDS011;51060;42.640;24.356;2023-04-08T00:16:56;15.07;;;12.77;;
32824;SDS011;51060;42.640;24.356;2023-04-08T00:19:21;13.53;;;11.90;;
32824;SDS011;51060;42.640;24.356;2023-04-08T00:21:47;12.70;;;11.13;;
32824;SDS011;51060;42.640;24.356;2023-04-08T00:24:12;13.67;;;10.93;;
32824;SDS011;51060;42.640;24.356;2023-04-08T00:26:38;13.67;;;11.63;;
32824;SDS011;51060;42.640;24.356;2023-04-08T00:29:04;14.37;;;11.27;;
32824;SDS011;51060;42.640;24.356;2023-04-08T00:31:29;13.50;;;11.67;;
32824;SDS011;51060;42.640;24.356;2023-04-08T00:33:55;12.60;;;10.83;;
32824;SDS011;51060;42.640;24.356;2023-04-08T00:36:20;11.37;;;10.13;;
32824;SDS011;51060;42.640;24.356;2023-04-08T00:38:46;11.43;;;9.80;;
32824;SDS011;51060;42.640;24.356;2023-04-08T00:41:12;11.20;;;9.97;;
32824;SDS011;51060;42.640;24.356;2023-04-08T00:43:38;11.70;;;10.50;;
32824;SDS011;51060;42.640;24.356;2023-04-08T00:46:03;18.10;;;12.53;;
32824;SDS011;51060;42.640;24.356;2023-04-08T00:48:30;15.00;;;12.97;;
32824;SDS011;51060;42.640;24.356;2023-04-08T00:50:56;56.33;;;29.87;;
32824;SDS011;51060;42.640;24.356;2023-04-08T00:53:22;75.53;;;37.47;;
32824;SDS011;51060;42.640;24.356;2023-04-08T00:55:48;61.83;;;35.20;;
32824;SDS011;51060;42.640;24.356;2023-04-08T00:58:15;47.27;;;29.63;;
32824;SDS011;51060;42.640;24.356;2023-04-08T01:00:43;43.80;;;27.50;;
32824;SDS011;51060;42.640;24.356;2023-04-08T01:03:24;34.13;;;23.97;;
32824;SDS011;51060;42.640;24.356;2023-04-08T01:08:37;32.13;;;23.33;;
32824;SDS011;51060;42.640;24.356;2023-04-08T01:11:05;31.27;;;23.83;;
32824;SDS011;51060;42.640;24.356;2023-04-08T01:13:33;29.47;;;23.47;;
32824;SDS011;51060;42.640;24.356;2023-04-08T01:16:02;26.20;;;20.77;;
32824;SDS011;51060;42.640;24.356;2023-04-08T01:18:27;30.03;;;23.33;;
32824;SDS011;51060;42.640;24.356;2023-04-08T01:20:53;29.03;;;22.10;;
32824;SDS011;51060;42.640;24.356;2023-04-08T01:26:02;24.67;;;19.87;;
32824;SDS011;51060;42.640;24.356;2023-04-08T01:28:28;25.30;;;19.00;;
32824;SDS011;51060;42.640;24.356;2023-04-08T01:30:56;21.53;;;17.83;;
32824;SDS011;51060;42.640;24.356;2023-04-08T01:33:22;20.83;;;17.33;;
32824;SDS011;51060;42.640;24.356;2023-04-08T01:35:48;23.17;;;18.10;;
32824;SDS011;51060;42.640;24.356;2023-04-08T01:38:17;20.47;;;17.10;;
32824;SDS011;51060;42.640;24.356;2023-04-08T01:40:45;23.60;;;18.00;;
32824;SDS011;51060;42.640;24.356;2023-04-08T01:43:12;23.57;;;18.23;;
32824;SDS011;51060;42.640;24.356;2023-04-08T01:45:39;25.57;;;20.13;;
32824;SDS011;51060;42.640;24.356;2023-04-08T01:48:04;27.50;;;20.27;;
32824;SDS011;51060;42.640;24.356;2023-04-08T01:50:31;29.10;;;20.93;;
32824;SDS011;51060;42.640;24.356;2023-04-08T01:52:58;31.20;;;23.53;;
32824;SDS011;51060;42.640;24.356;2023-04-08T01:55:25;32.67;;;24.40;;
32824;SDS011;51060;42.640;24.356;2023-04-08T01:57:51;37.47;;;27.73;;
32824;SDS011;51060;42.640;24.356;2023-04-08T02:00:18;38.43;;;27.43;;
32824;SDS011;51060;42.640;24.356;2023-04-08T02:02:46;22.97;;;18.10;;
32824;SDS011;51060;42.640;24.356;2023-04-08T02:05:12;21.07;;;16.57;;
32824;SDS011;51060;42.640;24.356;2023-04-08T02:07:38;35.23;;;21.87;;
32824;SDS011;51060;42.640;24.356;2023-04-08T02:10:04;31.63;;;21.03;;
32824;SDS011;51060;42.640;24.356;2023-04-08T02:12:30;32.87;;;22.93;;
32824;SDS011;51060;42.640;24.356;2023-04-08T02:14:57;36.37;;;26.87;;
32824;SDS011;51060;42.640;24.356;2023-04-08T02:17:29;36.57;;;26.23;;
32824;SDS011;51060;42.640;24.356;2023-04-08T02:20:07;33.03;;;25.27;;
32824;SDS011;51060;42.640;24.356;2023-04-08T02:25:16;31.27;;;24.50;;
32824;SDS011;51060;42.640;24.356;2023-04-08T02:27:46;26.90;;;20.13;;
32824;SDS011;51060;42.640;24.356;2023-04-08T02:30:13;34.43;;;24.47;;
32824;SDS011;51060;42.640;24.356;2023-04-08T02:32:40;35.17;;;25.23;;
32824;SDS011;51060;42.640;24.356;2023-04-08T02:35:06;28.77;;;20.17;;
32824;SDS011;51060;42.640;24.356;2023-04-08T02:37:32;22.17;;;17.67;;
32824;SDS011;51060;42.640;24.356;2023-04-08T02:39:58;28.70;;;21.77;;
32824;SDS011;51060;42.640;24.356;2023-04-08T02:42:23;25.40;;;19.67;;
32824;SDS011;51060;42.640;24.356;2023-04-08T02:44:49;23.77;;;18.60;;
32824;SDS011;51060;42.640;24.356;2023-04-08T02:47:15;21.53;;;17.73;;
32824;SDS011;51060;42.640;24.356;2023-04-08T02:49:41;34.33;;;23.97;;
32824;SDS011;51060;42.640;24.356;2023-04-08T02:52:06;39.23;;;27.60;;
32824;SDS011;51060;42.640;24.356;2023-04-08T02:54:32;36.33;;;26.80;;
32824;SDS011;51060;42.640;24.356;2023-04-08T02:56:57;38.57;;;26.00;;
32824;SDS011;51060;42.640;24.356;2023-04-08T02:59:23;32.10;;;25.73;;
32824;SDS011;51060;42.640;24.356;2023-04-08T03:01:49;36.47;;;26.33;;
32824;SDS011;51060;42.640;24.356;2023-04-08T03:04:15;32.53;;;24.97;;
32824;SDS011;51060;42.640;24.356;2023-04-08T03:06:40;34.83;;;26.10;;
32824;SDS011;51060;42.640;24.356;2023-04-08T03:09:06;30.20;;;23.67;;
32824;SDS011;51060;42.640;24.356;2023-04-08T03:11:32;28.97;;;21.47;;
32824;SDS011;51060;42.640;24.356;2023-04-08T03:13:57;28.13;;;22.33;;
32824;SDS011;51060;42.640;24.356;2023-04-08T03:16:23;33.67;;;25.20;;
32824;SDS011;51060;42.640;24.356;2023-04-08T03:18:49;28.27;;;22.30;;
32824;SDS011;51060;42.640;24.356;2023-04-08T03:21:17;29.60;;;22.73;;
32824;SDS011;51060;42.640;24.356;2023-04-08T03:23:43;39.80;;;28.93;;
32824;SDS011;51060;42.640;24.356;2023-04-08T03:26:09;38.03;;;28.80;;
32824;SDS011;51060;42.640;24.356;2023-04-08T03:28:35;39.07;;;29.33;;
32824;SDS011;51060;42.640;24.356;2023-04-08T03:31:02;41.33;;;29.97;;
32824;SDS011;51060;42.640;24.356;2023-04-08T03:33:28;39.20;;;28.47;;
32824;SDS011;51060;42.640;24.356;2023-04-08T03:35:53;38.37;;;28.40;;
32824;SDS011;51060;42.640;24.356;2023-04-08T03:38:19;35.60;;;26.07;;
32824;SDS011;51060;42.640;24.356;2023-04-08T03:40:45;35.77;;;26.00;;
32824;SDS011;51060;42.640;24.356;2023-04-08T03:43:10;32.93;;;26.60;;
32824;SDS011;51060;42.640;24.356;2023-04-08T03:45:37;33.47;;;25.37;;
32824;SDS011;51060;42.640;24.356;2023-04-08T03:48:03;33.37;;;25.50;;
32824;SDS011;51060;42.640;24.356;2023-04-08T03:50:28;32.27;;;25.80;;
32824;SDS011;51060;42.640;24.356;2023-04-08T03:52:54;32.40;;;25.37;;
32824;SDS011;51060;42.640;24.356;2023-04-08T03:55:19;31.43;;;24.50;;
32824;SDS011;51060;42.640;24.356;2023-04-08T03:57:45;33.47;;;25.63;;
32824;SDS011;51060;42.640;24.356;2023-04-08T04:00:11;32.43;;;25.13;;
32824;SDS011;51060;42.640;24.356;2023-04-08T04:02:37;43.03;;;31.70;;
32824;SDS011;51060;42.640;24.356;2023-04-08T04:05:02;63.43;;;41.03;;
32824;SDS011;51060;42.640;24.356;2023-04-08T04:07:28;60.40;;;39.07;;
32824;SDS011;51060;42.640;24.356;2023-04-08T04:09:54;49.30;;;33.23;;
32824;SDS011;51060;42.640;24.356;2023-04-08T04:12:21;36.37;;;26.60;;
32824;SDS011;51060;42.640;24.356;2023-04-08T04:14:47;43.00;;;31.60;;
32824;SDS011;51060;42.640;24.356;2023-04-08T04:17:13;52.63;;;37.77;;
32824;SDS011;51060;42.640;24.356;2023-04-08T04:19:38;64.63;;;45.30;;
32824;SDS011;51060;42.640;24.356;2023-04-08T04:22:04;76.90;;;51.00;;
32824;SDS011;51060;42.640;24.356;2023-04-08T04:24:29;70.27;;;45.77;;
32824;SDS011;51060;42.640;24.356;2023-04-08T04:26:55;67.17;;;44.67;;
32824;SDS011;51060;42.640;24.356;2023-04-08T04:29:20;72.70;;;46.83;;
32824;SDS011;51060;42.640;24.356;2023-04-08T04:31:46;70.13;;;44.47;;
32824;SDS011;51060;42.640;24.356;2023-04-08T04:34:11;61.80;;;41.77;;
32824;SDS011;51060;42.640;24.356;2023-04-08T04:36:37;68.03;;;45.80;;
32824;SDS011;51060;42.640;24.356;2023-04-08T04:39:03;65.93;;;44.63;;
32824;SDS011;51060;42.640;24.356;2023-04-08T04:41:28;54.50;;;39.63;;
32824;SDS011;51060;42.640;24.356;2023-04-08T04:43:54;62.53;;;44.93;;
32824;SDS011;51060;42.640;24.356;2023-04-08T04:46:25;54.90;;;40.97;;
32824;SDS011;51060;42.640;24.356;2023-04-08T04:48:50;72.50;;;48.67;;
32824;SDS011;51060;42.640;24.356;2023-04-08T04:51:16;81.03;;;56.47;;
32824;SDS011;51060;42.640;24.356;2023-04-08T04:53:41;94.37;;;65.47;;
32824;SDS011;51060;42.640;24.356;2023-04-08T04:56:07;95.77;;;67.87;;
32824;SDS011;51060;42.640;24.356;2023-04-08T04:58:33;81.03;;;54.80;;
32824;SDS011;51060;42.640;24.356;2023-04-08T05:00:58;80.10;;;53.23;;
32824;SDS011;51060;42.640;24.356;2023-04-08T05:03:24;78.27;;;56.53;;
32824;SDS011;51060;42.640;24.356;2023-04-08T05:05:50;70.37;;;51.63;;
32824;SDS011;51060;42.640;24.356;2023-04-08T05:08:19;55.10;;;41.20;;
32824;SDS011;51060;42.640;24.356;2023-04-08T05:10:45;56.23;;;40.73;;
32824;SDS011;51060;42.640;24.356;2023-04-08T05:13:11;56.70;;;42.77;;
32824;SDS011;51060;42.640;24.356;2023-04-08T05:15:36;68.97;;;52.40;;
32824;SDS011;51060;42.640;24.356;2023-04-08T05:18:02;77.33;;;56.27;;
32824;SDS011;51060;42.640;24.356;2023-04-08T05:20:27;68.03;;;51.20;;
32824;SDS011;51060;42.640;24.356;2023-04-08T05:22:53;59.60;;;44.63;;
32824;SDS011;51060;42.640;24.356;2023-04-08T05:25:19;50.87;;;38.80;;
32824;SDS011;51060;42.640;24.356;2023-04-08T05:27:45;59.10;;;44.70;;
32824;SDS011;51060;42.640;24.356;2023-04-08T05:30:11;55.27;;;42.27;;
32824;SDS011;51060;42.640;24.356;2023-04-08T05:32:37;48.67;;;38.47;;
32824;SDS011;51060;42.640;24.356;2023-04-08T05:35:02;57.83;;;42.27;;
32824;SDS011;51060;42.640;24.356;2023-04-08T05:37:28;51.17;;;39.93;;
32824;SDS011;51060;42.640;24.356;2023-04-08T05:39:57;54.83;;;41.90;;
32824;SDS011;51060;42.640;24.356;2023-04-08T05:42:23;56.17;;;43.13;;
32824;SDS011;51060;42.640;24.356;2023-04-08T05:44:48;43.60;;;34.60;;
32824;SDS011;51060;42.640;24.356;2023-04-08T05:47:14;41.50;;;31.03;;
32824;SDS011;51060;42.640;24.356;2023-04-08T05:49:40;33.03;;;24.67;;
32824;SDS011;51060;42.640;24.356;2023-04-08T05:52:06;30.03;;;23.27;;
32824;SDS011;51060;42.640;24.356;2023-04-08T05:54:31;26.73;;;22.20;;
32824;SDS011;51060;42.640;24.356;2023-04-08T05:56:57;35.23;;;26.90;;
32824;SDS011;51060;42.640;24.356;2023-04-08T05:59:22;27.90;;;21.23;;
32824;SDS011;51060;42.640;24.356;2023-04-08T06:01:48;27.27;;;21.27;;
32824;SDS011;51060;42.640;24.356;2023-04-08T06:04:14;27.93;;;20.80;;
32824;SDS011;51060;42.640;24.356;2023-04-08T06:06:41;27.80;;;21.83;;
32824;SDS011;51060;42.640;24.356;2023-04-08T06:09:07;30.13;;;23.70;;
32824;SDS011;51060;42.640;24.356;2023-04-08T06:11:34;31.67;;;23.80;;
32824;SDS011;51060;42.640;24.356;2023-04-08T06:14:00;28.63;;;22.63;;
32824;SDS011;51060;42.640;24.356;2023-04-08T06:16:25;28.40;;;22.63;;
32824;SDS011;51060;42.640;24.356;2023-04-08T06:18:53;26.43;;;21.83;;
32824;SDS011;51060;42.640;24.356;2023-04-08T06:21:19;28.33;;;23.77;;
32824;SDS011;51060;42.640;24.356;2023-04-08T06:23:45;25.43;;;20.23;;
32824;SDS011;51060;42.640;24.356;2023-04-08T06:26:11;30.43;;;23.47;;
32824;SDS011;51060;42.640;24.356;2023-04-08T06:28:37;29.20;;;22.80;;
32824;SDS011;51060;42.640;24.356;2023-04-08T06:31:03;29.97;;;23.67;;
32824;SDS011;51060;42.640;24.356;2023-04-08T06:33:28;30.03;;;23.47;;
32824;SDS011;51060;42.640;24.356;2023-04-08T06:36:01;27.90;;;22.60;;
32824;SDS011;51060;42.640;24.356;2023-04-08T06:38:30;32.80;;;23.37;;
32824;SDS011;51060;42.640;24.356;2023-04-08T06:41:00;25.80;;;20.73;;
32824;SDS011;51060;42.640;24.356;2023-04-08T06:43:29;24.87;;;19.20;;
32824;SDS011;51060;42.640;24.356;2023-04-08T06:45:55;26.17;;;21.20;;
32824;SDS011;51060;42.640;24.356;2023-04-08T06:48:21;25.10;;;20.37;;
32824;SDS011;51060;42.640;24.356;2023-04-08T06:50:47;20.93;;;18.63;;
32824;SDS011;51060;42.640;24.356;2023-04-08T06:53:13;21.23;;;16.93;;
32824;SDS011;51060;42.640;24.356;2023-04-08T06:55:39;24.30;;;19.83;;
32824;SDS011;51060;42.640;24.356;2023-04-08T06:58:05;26.17;;;21.20;;
32824;SDS011;51060;42.640;24.356;2023-04-08T07:00:31;25.83;;;20.40;;
32824;SDS011;51060;42.640;24.356;2023-04-08T07:02:56;26.73;;;21.00;;
32824;SDS011;51060;42.640;24.356;2023-04-08T07:05:22;25.23;;;19.40;;
32824;SDS011;51060;42.640;24.356;2023-04-08T07:07:47;24.60;;;19.07;;
32824;SDS011;51060;42.640;24.356;2023-04-08T07:10:13;22.57;;;18.97;;
32824;SDS011;51060;42.640;24.356;2023-04-08T07:12:38;26.93;;;22.53;;
32824;SDS011;51060;42.640;24.356;2023-04-08T07:15:04;26.23;;;21.60;;
32824;SDS011;51060;42.640;24.356;2023-04-08T07:17:30;24.03;;;20.63;;
32824;SDS011;51060;42.640;24.356;2023-04-08T07:19:56;21.90;;;17.47;;
32824;SDS011;51060;42.640;24.356;2023-04-08T07:22:21;19.97;;;15.33;;
32824;SDS011;51060;42.640;24.356;2023-04-08T07:24:47;18.33;;;16.37;;
32824;SDS011;51060;42.640;24.356;2023-04-08T07:27:14;21.23;;;16.90;;
32824;SDS011;51060;42.640;24.356;2023-04-08T07:29:40;24.70;;;19.03;;
32824;SDS011;51060;42.640;24.356;2023-04-08T07:32:06;18.07;;;15.67;;
32824;SDS011;51060;42.640;24.356;2023-04-08T07:34:35;19.67;;;16.63;;
32824;SDS011;51060;42.640;24.356;2023-04-08T07:37:00;17.63;;;15.60;;
32824;SDS011;51060;42.640;24.356;2023-04-08T07:39:26;16.50;;;14.70;;
32824;SDS011;51060;42.640;24.356;2023-04-08T07:41:52;17.00;;;15.20;;
32824;SDS011;51060;42.640;24.356;2023-04-08T07:44:18;15.70;;;13.57;;
32824;SDS011;51060;42.640;24.356;2023-04-08T07:46:44;17.47;;;14.53;;
32824;SDS011;51060;42.640;24.356;2023-04-08T07:49:10;13.37;;;12.07;;
32824;SDS011;51060;42.640;24.356;2023-04-08T07:51:36;15.10;;;11.87;;
32824;SDS011;51060;42.640;24.356;2023-04-08T07:54:02;16.83;;;13.03;;
32824;SDS011;51060;42.640;24.356;2023-04-08T07:56:28;14.47;;;12.97;;
32824;SDS011;51060;42.640;24.356;2023-04-08T07:58:53;15.57;;;13.67;;
32824;SDS011;51060;42.640;24.356;2023-04-08T08:01:20;14.37;;;12.80;;
32824;SDS011;51060;42.640;24.356;2023-04-08T08:03:47;13.50;;;12.10;;
32824;SDS011;51060;42.640;24.356;2023-04-08T08:06:13;18.70;;;15.87;;
32824;SDS011;51060;42.640;24.356;2023-04-08T08:08:39;18.30;;;14.97;;
32824;SDS011;51060;42.640;24.356;2023-04-08T08:11:05;15.77;;;13.57;;
32824;SDS011;51060;42.640;24.356;2023-04-08T08:13:30;14.83;;;13.30;;
32824;SDS011;51060;42.640;24.356;2023-04-08T08:15:57;17.13;;;14.03;;
32824;SDS011;51060;42.640;24.356;2023-04-08T08:18:22;18.00;;;13.53;;
32824;SDS011;51060;42.640;24.356;2023-04-08T08:20:48;17.93;;;15.63;;
32824;SDS011;51060;42.640;24.356;2023-04-08T08:23:16;17.47;;;15.67;;
32824;SDS011;51060;42.640;24.356;2023-04-08T08:25:42;19.47;;;16.60;;
32824;SDS011;51060;42.640;24.356;2023-04-08T08:28:08;17.80;;;14.93;;
32824;SDS011;51060;42.640;24.356;2023-04-08T08:30:33;23.83;;;18.60;;
32824;SDS011;51060;42.640;24.356;2023-04-08T08:32:59;16.27;;;13.90;;
32824;SDS011;51060;42.640;24.356;2023-04-08T08:35:24;16.70;;;14.80;;
32824;SDS011;51060;42.640;24.356;2023-04-08T08:37:50;16.30;;;14.47;;
32824;SDS011;51060;42.640;24.356;2023-04-08T08:40:16;16.07;;;14.37;;
32824;SDS011;51060;42.640;24.356;2023-04-08T08:42:42;16.43;;;14.77;;
32824;SDS011;51060;42.640;24.356;2023-04-08T08:45:15;19.60;;;16.57;;
32824;SDS011;51060;42.640;24.356;2023-04-08T08:47:43;21.47;;;17.10;;
32824;SDS011;51060;42.640;24.356;2023-04-08T08:50:08;28.03;;;19.87;;
32824;SDS011;51060;42.640;24.356;2023-04-08T08:52:34;27.03;;;20.17;;
32824;SDS011;51060;42.640;24.356;2023-04-08T08:55:00;22.03;;;19.40;;
32824;SDS011;51060;42.640;24.356;2023-04-08T08:57:25;19.77;;;15.47;;
32824;SDS011;51060;42.640;24.356;2023-04-08T08:59:51;17.80;;;15.50;;
32824;SDS011;51060;42.640;24.356;2023-04-08T09:02:23;16.63;;;14.80;;
32824;SDS011;51060;42.640;24.356;2023-04-08T09:04:57;18.60;;;15.20;;
32824;SDS011;51060;42.640;24.356;2023-04-08T09:07:25;18.13;;;15.80;;
32824;SDS011;51060;42.640;24.356;2023-04-08T09:09:52;15.50;;;13.80;;
32824;SDS011;51060;42.640;24.356;2023-04-08T09:12:18;18.00;;;14.77;;
32824;SDS011;51060;42.640;24.356;2023-04-08T09:14:44;20.20;;;17.23;;
32824;SDS011;51060;42.640;24.356;2023-04-08T09:17:10;23.07;;;20.00;;
32824;SDS011;51060;42.640;24.356;2023-04-08T09:19:36;24.30;;;19.10;;
32824;SDS011;51060;42.640;24.356;2023-04-08T09:22:08;22.63;;;19.10;;
32824;SDS011;51060;42.640;24.356;2023-04-08T09:24:35;19.70;;;17.50;;
32824;SDS011;51060;42.640;24.356;2023-04-08T09:27:02;21.80;;;17.77;;
32824;SDS011;51060;42.640;24.356;2023-04-08T09:29:28;25.47;;;19.67;;
32824;SDS011;51060;42.640;24.356;2023-04-08T09:31:55;23.40;;;19.27;;
32824;SDS011;51060;42.640;24.356;2023-04-08T09:34:21;19.27;;;17.27;;
32824;SDS011;51060;42.640;24.356;2023-04-08T09:36:48;20.73;;;17.73;;
32824;SDS011;51060;42.640;24.356;2023-04-08T09:39:14;22.77;;;18.97;;
32824;SDS011;51060;42.640;24.356;2023-04-08T09:41:40;22.97;;;19.77;;
32824;SDS011;51060;42.640;24.356;2023-04-08T09:44:11;22.50;;;17.50;;
32824;SDS011;51060;42.640;24.356;2023-04-08T09:46:45;20.63;;;17.43;;
32824;SDS011;51060;42.640;24.356;2023-04-08T09:54:56;23.17;;;20.43;;
32824;SDS011;51060;42.640;24.356;2023-04-08T09:57:43;27.20;;;21.00;;
32824;SDS011;51060;42.640;24.356;2023-04-08T10:00:15;26.13;;;21.83;;
32824;SDS011;51060;42.640;24.356;2023-04-08T10:02:54;21.63;;;17.90;;
32824;SDS011;51060;42.640;24.356;2023-04-08T10:05:39;26.03;;;21.70;;
32824;SDS011;51060;42.640;24.356;2023-04-08T10:08:06;19.90;;;17.73;;
32824;SDS011;51060;42.640;24.356;2023-04-08T10:10:34;21.93;;;19.10;;
32824;SDS011;51060;42.640;24.356;2023-04-08T10:13:01;22.03;;;17.70;;
32824;SDS011;51060;42.640;24.356;2023-04-08T10:15:28;19.70;;;17.37;;
32824;SDS011;51060;42.640;24.356;2023-04-08T10:23:04;19.40;;;15.87;;
32824;SDS011;51060;42.640;24.356;2023-04-08T10:25:34;19.30;;;16.87;;
32824;SDS011;51060;42.640;24.356;2023-04-08T10:28:22;19.07;;;16.47;;
32824;SDS011;51060;42.640;24.356;2023-04-08T10:30:48;22.27;;;19.03;;
32824;SDS011;51060;42.640;24.356;2023-04-08T10:33:16;23.57;;;20.00;;
32824;SDS011;51060;42.640;24.356;2023-04-08T10:35:46;22.83;;;18.90;;
32824;SDS011;51060;42.640;24.356;2023-04-08T10:38:13;21.30;;;17.07;;
32824;SDS011;51060;42.640;24.356;2023-04-08T10:40:40;26.60;;;18.60;;
32824;SDS011;51060;42.640;24.356;2023-04-08T10:43:07;22.20;;;17.13;;
32824;SDS011;51060;42.640;24.356;2023-04-08T10:45:34;21.27;;;17.93;;
32824;SDS011;51060;42.640;24.356;2023-04-08T10:53:35;21.77;;;17.63;;
32824;SDS011;51060;42.640;24.356;2023-04-08T10:56:05;19.93;;;16.20;;
32824;SDS011;51060;42.640;24.356;2023-04-08T10:58:32;20.80;;;17.13;;
32824;SDS011;51060;42.640;24.356;2023-04-08T11:01:02;17.73;;;15.00;;
32824;SDS011;51060;42.640;24.356;2023-04-08T11:03:30;18.53;;;16.53;;
32824;SDS011;51060;42.640;24.356;2023-04-08T11:05:58;20.20;;;16.93;;
32824;SDS011;51060;42.640;24.356;2023-04-08T11:08:31;21.67;;;16.73;;
32824;SDS011;51060;42.640;24.356;2023-04-08T11:10:58;23.23;;;17.43;;
32824;SDS011;51060;42.640;24.356;2023-04-08T11:13:29;21.33;;;17.50;;
32824;SDS011;51060;42.640;24.356;2023-04-08T11:15:56;20.43;;;16.07;;
32824;SDS011;51060;42.640;24.356;2023-04-08T11:18:22;18.63;;;15.37;;
32824;SDS011;51060;42.640;24.356;2023-04-08T11:20:49;23.43;;;18.00;;
32824;SDS011;51060;42.640;24.356;2023-04-08T11:23:15;18.37;;;15.37;;
32824;SDS011;51060;42.640;24.356;2023-04-08T11:25:41;21.17;;;17.10;;
32824;SDS011;51060;42.640;24.356;2023-04-08T11:28:08;18.90;;;16.17;;
32824;SDS011;51060;42.640;24.356;2023-04-08T11:30:35;19.17;;;16.07;;
32824;SDS011;51060;42.640;24.356;2023-04-08T11:33:00;21.23;;;18.20;;
32824;SDS011;51060;42.640;24.356;2023-04-08T11:35:29;20.43;;;16.43;;
32824;SDS011;51060;42.640;24.356;2023-04-08T11:37:57;17.30;;;14.50;;
32824;SDS011;51060;42.640;24.356;2023-04-08T11:40:23;14.67;;;12.97;;
32824;SDS011;51060;42.640;24.356;2023-04-08T11:42:50;21.03;;;16.37;;
32824;SDS011;51060;42.640;24.356;2023-04-08T11:45:20;15.97;;;14.17;;
32824;SDS011;51060;42.640;24.356;2023-04-08T11:47:45;16.40;;;14.70;;
32824;SDS011;51060;42.640;24.356;2023-04-08T11:50:12;17.53;;;14.70;;
32824;SDS011;51060;42.640;24.356;2023-04-08T11:52:47;15.57;;;13.10;;
32824;SDS011;51060;42.640;24.356;2023-04-08T11:55:35;15.77;;;12.70;;
32824;SDS011;51060;42.640;24.356;2023-04-08T11:58:03;15.20;;;12.83;;
32824;SDS011;51060;42.640;24.356;2023-04-08T12:00:30;17.70;;;15.33;;
32824;SDS011;51060;42.640;24.356;2023-04-08T12:02:57;16.40;;;13.67;;
32824;SDS011;51060;42.640;24.356;2023-04-08T12:05:22;14.73;;;12.40;;
32824;SDS011;51060;42.640;24.356;2023-04-08T12:07:48;17.97;;;15.80;;
32824;SDS011;51060;42.640;24.356;2023-04-08T12:10:14;13.10;;;11.67;;
32824;SDS011;51060;42.640;24.356;2023-04-08T12:12:40;12.77;;;11.40;;
32824;SDS011;51060;42.640;24.356;2023-04-08T12:15:06;15.93;;;13.87;;
32824;SDS011;51060;42.640;24.356;2023-04-08T12:17:32;15.07;;;13.10;;
32824;SDS011;51060;42.640;24.356;2023-04-08T12:19:58;10.63;;;9.30;;
32824;SDS011;51060;42.640;24.356;2023-04-08T12:22:24;11.80;;;10.27;;
32824;SDS011;51060;42.640;24.356;2023-04-08T12:24:50;17.60;;;14.40;;
32824;SDS011;51060;42.640;24.356;2023-04-08T12:27:16;15.50;;;12.87;;
32824;SDS011;51060;42.640;24.356;2023-04-08T12:29:41;13.67;;;11.83;;
32824;SDS011;51060;42.640;24.356;2023-04-08T12:32:07;15.50;;;12.70;;
32824;SDS011;51060;42.640;24.356;2023-04-08T12:34:33;14.13;;;11.60;;
32824;SDS011;51060;42.640;24.356;2023-04-08T12:36:59;13.97;;;11.63;;
32824;SDS011;51060;42.640;24.356;2023-04-08T12:39:25;10.83;;;9.73;;
32824;SDS011;51060;42.640;24.356;2023-04-08T12:41:50;14.20;;;12.37;;
32824;SDS011;51060;42.640;24.356;2023-04-08T12:44:16;17.67;;;13.73;;
32824;SDS011;51060;42.640;24.356;2023-04-08T12:46:41;16.13;;;14.10;;
32824;SDS011;51060;42.640;24.356;2023-04-08T12:49:10;20.00;;;16.63;;
32824;SDS011;51060;42.640;24.356;2023-04-08T12:51:36;19.37;;;17.13;;
32824;SDS011;51060;42.640;24.356;2023-04-08T12:54:02;16.87;;;14.53;;
32824;SDS011;51060;42.640;24.356;2023-04-08T12:56:28;16.47;;;14.60;;
32824;SDS011;51060;42.640;24.356;2023-04-08T12:58:54;18.37;;;16.23;;
32824;SDS011;51060;42.640;24.356;2023-04-08T13:01:21;20.70;;;17.00;;
32824;SDS011;51060;42.640;24.356;2023-04-08T13:03:47;22.03;;;17.07;;
32824;SDS011;51060;42.640;24.356;2023-04-08T13:06:13;20.47;;;17.90;;
32824;SDS011;51060;42.640;24.356;2023-04-08T13:08:39;19.17;;;16.50;;
32824;SDS011;51060;42.640;24.356;2023-04-08T13:11:06;17.40;;;15.33;;
32824;SDS011;51060;42.640;24.356;2023-04-08T13:13:31;22.40;;;18.87;;
32824;SDS011;51060;42.640;24.356;2023-04-08T13:15:57;22.87;;;17.10;;
32824;SDS011;51060;42.640;24.356;2023-04-08T13:18:23;20.93;;;17.30;;
32824;SDS011;51060;42.640;24.356;2023-04-08T13:20:48;20.30;;;17.37;;
32824;SDS011;51060;42.640;24.356;2023-04-08T13:23:14;19.70;;;15.07;;
32824;SDS011;51060;42.640;24.356;2023-04-08T13:25:42;21.50;;;18.57;;
32824;SDS011;51060;42.640;24.356;2023-04-08T13:28:08;25.37;;;20.87;;
32824;SDS011;51060;42.640;24.356;2023-04-08T13:30:33;21.97;;;18.83;;
32824;SDS011;51060;42.640;24.356;2023-04-08T13:32:59;35.07;;;31.03;;
32824;SDS011;51060;42.640;24.356;2023-04-08T13:35:25;19.43;;;17.33;;
32824;SDS011;51060;42.640;24.356;2023-04-08T13:37:50;19.57;;;17.00;;
32824;SDS011;51060;42.640;24.356;2023-04-08T13:40:16;20.80;;;18.20;;
32824;SDS011;51060;42.640;24.356;2023-04-08T13:42:42;24.13;;;19.57;;
32824;SDS011;51060;42.640;24.356;2023-04-08T13:45:07;22.63;;;19.37;;
32824;SDS011;51060;42.640;24.356;2023-04-08T13:47:33;19.37;;;16.87;;
32824;SDS011;51060;42.640;24.356;2023-04-08T13:50:00;19.13;;;15.87;;
32824;SDS011;51060;42.640;24.356;2023-04-08T13:52:25;15.60;;;13.97;;
32824;SDS011;51060;42.640;24.356;2023-04-08T13:54:51;16.73;;;14.27;;
32824;SDS011;51060;42.640;24.356;2023-04-08T13:57:17;14.97;;;13.10;;
32824;SDS011;51060;42.640;24.356;2023-04-08T13:59:45;14.87;;;12.47;;
32824;SDS011;51060;42.640;24.356;2023-04-08T14:02:11;14.57;;;11.80;;
32824;SDS011;51060;42.640;24.356;2023-04-08T14:04:36;12.77;;;10.50;;
32824;SDS011;51060;42.640;24.356;2023-04-08T14:07:03;13.60;;;11.90;;
32824;SDS011;51060;42.640;24.356;2023-04-08T14:09:29;12.83;;;11.53;;
32824;SDS011;51060;42.640;24.356;2023-04-08T14:11:55;21.33;;;18.17;;
32824;SDS011;51060;42.640;24.356;2023-04-08T14:14:22;16.97;;;14.67;;
32824;SDS011;51060;42.640;24.356;2023-04-08T14:16:47;15.37;;;12.70;;
32824;SDS011;51060;42.640;24.356;2023-04-08T14:19:13;15.00;;;13.40;;
32824;SDS011;51060;42.640;24.356;2023-04-08T14:21:39;15.00;;;13.50;;
32824;SDS011;51060;42.640;24.356;2023-04-08T14:24:05;12.07;;;10.87;;
32824;SDS011;51060;42.640;24.356;2023-04-08T14:26:30;12.53;;;10.60;;
32824;SDS011;51060;42.640;24.356;2023-04-08T14:29:03;9.30;;;8.40;;
32824;SDS011;51060;42.640;24.356;2023-04-08T14:31:29;8.67;;;7.87;;